Time;durP1;ratioP1;P1;durP2;ratioP2;P2;SDS_P1;SDS_P2;PMS_P1;PMS_P2;Temp;Humidity;BMP_temperature;BMP_pressure;BME280_temperature;BME280_humidity;BME280_pressure;Samples;Min_cycle;Max_cycle;Signal;HPM_P1;HPM_P2
2021/01/14 00:01:10;;;;;;;53.08;44.30;;;;;;;;;;5059325;28;20436;-44
2021/01/14 00:03:36;;;;;;;57.72;51.50;;;;;;;;;;5061335;28;20032;-44
2021/01/14 00:06:02;;;;;;;70.35;54.63;;;;;;;;;;5059601;28;20025;-44
2021/01/14 00:08:27;;;;;;;58.33;52.25;;;;;;;;;;5060619;28;20035;-44
2021/01/14 00:10:52;;;;;;;63.20;46.05;;;;;;;;;;5060695;28;20032;-42
2021/01/14 00:13:18;;;;;;;53.35;43.67;;;;;;;;;;5059210;28;20391;-47
2021/01/14 00:15:43;;;;;;;59.63;45.72;;;;;;;;;;5062557;28;20384;-45
2021/01/14 00:18:08;;;;;;;59.58;44.17;;;;;;;;;;5061150;28;20029;-41
2021/01/14 00:20:33;;;;;;;58.22;48.80;;;;;;;;;;5061123;28;20116;-43
2021/01/14 00:22:59;;;;;;;61.63;47.20;;;;;;;;;;5059441;28;20085;-47
2021/01/14 00:25:24;;;;;;;49.03;43.55;;;;;;;;;;5059876;28;20028;-48
2021/01/14 00:27:52;;;;;;;58.15;41.13;;;;;;;;;;5061026;28;20356;-44
2021/01/14 00:30:21;;;;;;;49.67;35.38;;;;;;;;;;5058800;28;20032;-45
2021/01/14 00:32:47;;;;;;;41.72;37.72;;;;;;;;;;5064853;28;20525;-44
2021/01/14 00:35:13;;;;;;;57.42;39.22;;;;;;;;;;5063146;28;20020;-44
2021/01/14 00:37:50;;;;;;;37.70;33.33;;;;;;;;;;5064606;28;20061;-41
2021/01/14 00:40:17;;;;;;;34.80;25.63;;;;;;;;;;5061837;28;20472;-43
2021/01/14 00:42:42;;;;;;;28.45;21.95;;;;;;;;;;5058687;28;20082;-43
2021/01/14 00:45:08;;;;;;;25.33;21.27;;;;;;;;;;5059417;28;20049;-42
2021/01/14 00:47:36;;;;;;;24.95;22.40;;;;;;;;;;5060504;28;20025;-42
2021/01/14 00:50:02;;;;;;;34.45;25.95;;;;;;;;;;5056868;28;20017;-43
2021/01/14 00:52:27;;;;;;;27.25;24.15;;;;;;;;;;5061245;28;20029;-42
2021/01/14 00:54:53;;;;;;;42.10;25.40;;;;;;;;;;5060105;28;20451;-41
2021/01/14 00:57:18;;;;;;;29.20;23.88;;;;;;;;;;5058362;28;20410;-44
2021/01/14 00:59:43;;;;;;;29.50;25.20;;;;;;;;;;5061901;28;20610;-42
2021/01/14 01:02:12;;;;;;;44.45;31.58;;;;;;;;;;5059975;28;20033;-47
2021/01/14 01:04:37;;;;;;;43.30;28.67;;;;;;;;;;5059345;28;20021;-41
2021/01/14 01:07:02;;;;;;;41.90;30.00;;;;;;;;;;5058466;28;20032;-43
2021/01/14 01:09:28;;;;;;;44.17;32.10;;;;;;;;;;5059220;28;20502;-41
2021/01/14 01:11:53;;;;;;;36.20;29.00;;;;;;;;;;5059656;28;20028;-42
2021/01/14 01:14:18;;;;;;;35.10;31.13;;;;;;;;;;5057909;28;20024;-48
2021/01/14 01:16:44;;;;;;;33.88;27.80;;;;;;;;;;5060892;28;20048;-41
2021/01/14 01:19:09;;;;;;;31.00;27.83;;;;;;;;;;5057996;28;20037;-40
2021/01/14 01:21:34;;;;;;;30.75;26.33;;;;;;;;;;5059936;28;20128;-44
2021/01/14 01:24:00;;;;;;;33.13;27.55;;;;;;;;;;5058469;28;20032;-43
2021/01/14 01:26:25;;;;;;;45.05;30.60;;;;;;;;;;5059120;28;20032;-44
2021/01/14 01:28:50;;;;;;;32.60;26.13;;;;;;;;;;5059573;28;20024;-42
2021/01/14 01:31:16;;;;;;;27.30;24.63;;;;;;;;;;5062058;28;20024;-40
2021/01/14 01:33:41;;;;;;;28.38;24.05;;;;;;;;;;5058065;28;20020;-42
2021/01/14 01:36:07;;;;;;;35.10;28.88;;;;;;;;;;5056152;28;20364;-45
2021/01/14 01:38:33;;;;;;;38.53;29.45;;;;;;;;;;5059447;28;20078;-41
2021/01/14 01:40:59;;;;;;;32.75;29.42;;;;;;;;;;5058439;28;20554;-45
2021/01/14 01:43:25;;;;;;;37.65;29.38;;;;;;;;;;5058317;28;20025;-44
2021/01/14 01:45:50;;;;;;;39.28;29.15;;;;;;;;;;5061362;28;20063;-41
2021/01/14 01:48:16;;;;;;;32.70;28.60;;;;;;;;;;5057332;28;20139;-43
2021/01/14 01:50:42;;;;;;;38.00;31.90;;;;;;;;;;5059828;28;20102;-42
2021/01/14 01:53:09;;;;;;;32.35;26.55;;;;;;;;;;5057230;28;20048;-43
2021/01/14 01:55:34;;;;;;;33.35;28.10;;;;;;;;;;5059149;28;20033;-43
2021/01/14 01:58:00;;;;;;;30.50;27.17;;;;;;;;;;5057594;28;20035;-44
2021/01/14 02:00:25;;;;;;;31.33;25.85;;;;;;;;;;5058305;28;20037;-46
2021/01/14 02:02:51;;;;;;;35.72;29.25;;;;;;;;;;5058906;28;20020;-43
2021/01/14 02:05:17;;;;;;;31.65;28.27;;;;;;;;;;5057059;28;20025;-44
2021/01/14 02:08:11;;;;;;;41.50;30.88;;;;;;;;;;5060016;28;20020;-41
2021/01/14 02:10:51;;;;;;;32.78;28.50;;;;;;;;;;5051006;28;20048;-46
2021/01/14 02:13:22;;;;;;;32.80;29.23;;;;;;;;;;5057292;28;20020;-43
2021/01/14 02:15:51;;;;;;;27.90;24.17;;;;;;;;;;5063931;28;20025;-42
2021/01/14 02:18:17;;;;;;;32.85;26.38;;;;;;;;;;5065747;28;20277;-48
2021/01/14 02:20:43;;;;;;;43.38;28.42;;;;;;;;;;5062770;28;20033;-42
2021/01/14 02:23:21;;;;;;;28.38;25.25;;;;;;;;;;5065694;28;20024;-40
2021/01/14 02:26:08;;;;;;;37.17;26.35;;;;;;;;;;5063445;28;20057;-47
2021/01/14 02:28:34;;;;;;;28.83;24.80;;;;;;;;;;5060731;28;20416;-45
2021/01/14 02:31:00;;;;;;;28.80;25.80;;;;;;;;;;5057618;28;20120;-46
2021/01/14 02:33:26;;;;;;;32.03;25.70;;;;;;;;;;5057764;28;20057;-47
2021/01/14 02:35:51;;;;;;;33.78;26.70;;;;;;;;;;5059455;28;20064;-40
2021/01/14 02:38:16;;;;;;;32.50;26.08;;;;;;;;;;5060149;28;20490;-43
2021/01/14 02:40:42;;;;;;;38.90;26.55;;;;;;;;;;5059607;28;20104;-45
2021/01/14 02:43:07;;;;;;;30.40;24.67;;;;;;;;;;5056710;28;20448;-42
2021/01/14 02:45:33;;;;;;;35.75;23.55;;;;;;;;;;5058441;28;20053;-42
2021/01/14 02:47:58;;;;;;;26.75;22.20;;;;;;;;;;5057727;28;20029;-41
2021/01/14 02:50:24;;;;;;;28.90;22.67;;;;;;;;;;5057346;28;20390;-42
2021/01/14 02:52:49;;;;;;;24.25;21.50;;;;;;;;;;5058549;28;20528;-41
2021/01/14 02:55:15;;;;;;;22.58;19.80;;;;;;;;;;5058942;28;20418;-45
2021/01/14 02:57:42;;;;;;;24.90;20.50;;;;;;;;;;5063161;28;20056;-40
2021/01/14 03:00:08;;;;;;;28.23;21.33;;;;;;;;;;5060456;28;20036;-43
2021/01/14 03:02:33;;;;;;;20.20;17.48;;;;;;;;;;5062628;28;20440;-42
2021/01/14 03:04:58;;;;;;;24.92;22.27;;;;;;;;;;5061241;28;20502;-43
2021/01/14 03:07:24;;;;;;;26.77;18.98;;;;;;;;;;5061554;28;20093;-41
2021/01/14 03:09:49;;;;;;;32.35;23.33;;;;;;;;;;5062443;28;20048;-41
2021/01/14 03:12:14;;;;;;;33.30;26.63;;;;;;;;;;5060735;28;20509;-43
2021/01/14 03:14:40;;;;;;;31.67;25.77;;;;;;;;;;5064094;28;20021;-44
2021/01/14 03:17:05;;;;;;;35.88;19.88;;;;;;;;;;5069171;28;20108;-44
2021/01/14 03:19:30;;;;;;;19.42;16.85;;;;;;;;;;5067124;28;20031;-41
2021/01/14 03:21:59;;;;;;;22.00;16.88;;;;;;;;;;5068254;28;20056;-41
2021/01/14 03:24:25;;;;;;;19.00;17.02;;;;;;;;;;5059835;28;20029;-47
2021/01/14 03:26:51;;;;;;;16.27;14.57;;;;;;;;;;5062183;28;20405;-48
2021/01/14 03:29:16;;;;;;;14.00;11.43;;;;;;;;;;5060164;28;20040;-42
2021/01/14 03:31:41;;;;;;;15.40;12.65;;;;;;;;;;5061147;28;20071;-40
2021/01/14 03:34:06;;;;;;;12.18;9.80;;;;;;;;;;5063442;28;20024;-41
2021/01/14 03:36:32;;;;;;;22.40;14.63;;;;;;;;;;5058798;28;20469;-41
2021/01/14 03:38:58;;;;;;;19.27;14.75;;;;;;;;;;5068976;28;20021;-45
2021/01/14 03:41:23;;;;;;;24.95;20.08;;;;;;;;;;5063286;28;20043;-45
2021/01/14 03:43:48;;;;;;;34.50;25.55;;;;;;;;;;5061625;28;20110;-42
2021/01/14 03:46:21;;;;;;;32.78;24.95;;;;;;;;;;5059389;28;20097;-44
2021/01/14 03:48:47;;;;;;;36.97;27.80;;;;;;;;;;5059315;28;20024;-41
2021/01/14 03:51:16;;;;;;;29.02;22.77;;;;;;;;;;5060671;28;20037;-42
2021/01/14 03:53:42;;;;;;;28.20;21.08;;;;;;;;;;5061050;28;20384;-40
2021/01/14 03:56:07;;;;;;;17.00;15.32;;;;;;;;;;5061655;28;20029;-43
2021/01/14 03:58:32;;;;;;;20.33;9.48;;;;;;;;;;5060993;28;20040;-42
2021/01/14 04:00:58;;;;;;;20.17;16.30;;;;;;;;;;5060258;28;20033;-40
2021/01/14 04:03:23;;;;;;;11.55;10.35;;;;;;;;;;5059754;28;20031;-43
2021/01/14 04:05:49;;;;;;;13.70;11.88;;;;;;;;;;5059656;28;20033;-42
2021/01/14 04:08:14;;;;;;;13.60;10.38;;;;;;;;;;5059079;28;20032;-43
2021/01/14 04:10:39;;;;;;;13.10;11.80;;;;;;;;;;5061354;28;20047;-41
2021/01/14 04:13:04;;;;;;;14.18;11.93;;;;;;;;;;5059015;28;20027;-42
2021/01/14 04:15:30;;;;;;;12.80;7.82;;;;;;;;;;5059004;28;20463;-45
2021/01/14 04:17:55;;;;;;;12.82;8.70;;;;;;;;;;5059187;28;20020;-41
2021/01/14 04:20:20;;;;;;;7.85;7.05;;;;;;;;;;5058923;28;20466;-45
2021/01/14 04:22:49;;;;;;;10.55;8.73;;;;;;;;;;5061384;28;20020;-50
2021/01/14 04:25:14;;;;;;;13.35;11.93;;;;;;;;;;5063548;28;20031;-43
2021/01/14 04:27:40;;;;;;;12.60;10.85;;;;;;;;;;5061908;28;20024;-41
2021/01/14 04:30:06;;;;;;;15.27;11.43;;;;;;;;;;5058550;28;20062;-45
2021/01/14 04:32:32;;;;;;;20.00;9.60;;;;;;;;;;5060409;28;20029;-41
2021/01/14 04:34:57;;;;;;;20.42;11.25;;;;;;;;;;5059434;28;20025;-42
2021/01/14 04:37:22;;;;;;;19.83;8.38;;;;;;;;;;5061663;28;20028;-40
2021/01/14 04:39:47;;;;;;;17.15;10.27;;;;;;;;;;5062564;28;20119;-41
2021/01/14 04:42:15;;;;;;;14.68;9.35;;;;;;;;;;5058384;28;20037;-40
2021/01/14 04:44:40;;;;;;;11.10;9.35;;;;;;;;;;5060582;28;20020;-43
2021/01/14 04:47:15;;;;;;;11.73;8.80;;;;;;;;;;5058395;28;20463;-46
2021/01/14 04:49:41;;;;;;;11.90;9.77;;;;;;;;;;5060620;28;20115;-41
2021/01/14 04:52:12;;;;;;;15.20;13.57;;;;;;;;;;5057855;28;20186;-41
2021/01/14 04:54:40;;;;;;;14.82;12.75;;;;;;;;;;5058895;28;20036;-45
2021/01/14 04:57:27;;;;;;;13.98;11.00;;;;;;;;;;5058135;28;20493;-44
2021/01/14 04:59:52;;;;;;;9.40;8.27;;;;;;;;;;5065254;28;20382;-40
2021/01/14 05:02:22;;;;;;;9.25;7.80;;;;;;;;;;5066560;28;20032;-46
2021/01/14 05:04:49;;;;;;;9.02;8.13;;;;;;;;;;5064567;28;20104;-47
2021/01/14 05:07:14;;;;;;;16.23;9.60;;;;;;;;;;5066988;28;20031;-49
2021/01/14 05:09:41;;;;;;;11.10;9.57;;;;;;;;;;5064260;28;20032;-43
2021/01/14 05:12:06;;;;;;;11.70;9.10;;;;;;;;;;5066947;28;20028;-46
2021/01/14 05:14:32;;;;;;;10.77;8.50;;;;;;;;;;5064665;28;20016;-43
2021/01/14 05:16:58;;;;;;;10.05;8.75;;;;;;;;;;5065782;28;20028;-44
2021/01/14 05:19:23;;;;;;;9.48;7.65;;;;;;;;;;5065804;28;20127;-41
2021/01/14 05:21:48;;;;;;;7.25;6.55;;;;;;;;;;5063971;28;20568;-44
2021/01/14 05:24:15;;;;;;;10.48;7.70;;;;;;;;;;5066683;28;20020;-44
2021/01/14 05:26:41;;;;;;;8.77;7.22;;;;;;;;;;5062266;28;20033;-43
2021/01/14 05:29:12;;;;;;;8.55;7.07;;;;;;;;;;5066414;28;20073;-46
2021/01/14 05:31:37;;;;;;;6.80;5.43;;;;;;;;;;5063835;28;20028;-44
2021/01/14 05:34:03;;;;;;;9.13;7.95;;;;;;;;;;5066538;28;20085;-43
2021/01/14 05:36:48;;;;;;;9.85;7.72;;;;;;;;;;5060015;28;20059;-41
2021/01/14 05:39:17;;;;;;;8.20;6.45;;;;;;;;;;5054599;28;20191;-44
2021/01/14 05:41:42;;;;;;;9.80;5.95;;;;;;;;;;5057893;28;20032;-46
2021/01/14 05:44:07;;;;;;;7.60;6.90;;;;;;;;;;5057341;28;20048;-46
2021/01/14 05:46:33;;;;;;;9.07;7.80;;;;;;;;;;5059020;28;20610;-41
2021/01/14 05:49:03;;;;;;;9.05;6.95;;;;;;;;;;5057727;28;20067;-41
2021/01/14 05:51:31;;;;;;;7.90;7.05;;;;;;;;;;5060352;28;20036;-43
2021/01/14 05:54:02;;;;;;;8.35;6.18;;;;;;;;;;5056617;28;20024;-44
2021/01/14 05:56:31;;;;;;;7.10;6.22;;;;;;;;;;5058160;28;20072;-43
2021/01/14 05:58:56;;;;;;;9.32;7.47;;;;;;;;;;5055991;28;20037;-50
2021/01/14 06:01:23;;;;;;;7.18;6.15;;;;;;;;;;5057233;28;20108;-47
2021/01/14 06:03:49;;;;;;;8.38;6.05;;;;;;;;;;5057107;28;20017;-46
2021/01/14 06:06:17;;;;;;;9.07;8.10;;;;;;;;;;5055804;28;20043;-49
2021/01/14 06:08:42;;;;;;;17.88;15.00;;;;;;;;;;5059838;28;20031;-46
2021/01/14 06:11:17;;;;;;;14.45;12.95;;;;;;;;;;5055529;28;20025;-48
2021/01/14 06:13:42;;;;;;;9.95;8.88;;;;;;;;;;5059547;28;20411;-47
2021/01/14 06:16:08;;;;;;;10.40;8.55;;;;;;;;;;5056887;28;20051;-45
2021/01/14 06:18:33;;;;;;;12.38;11.05;;;;;;;;;;5058645;28;20141;-45
2021/01/14 06:20:58;;;;;;;11.25;9.45;;;;;;;;;;5057372;28;20028;-44
2021/01/14 06:23:24;;;;;;;15.52;10.38;;;;;;;;;;5061367;28;20447;-45
2021/01/14 06:25:50;;;;;;;7.53;6.70;;;;;;;;;;5056496;28;20082;-48
2021/01/14 06:28:17;;;;;;;15.13;12.10;;;;;;;;;;5059635;28;20020;-47
2021/01/14 06:31:03;;;;;;;19.42;17.42;;;;;;;;;;5062680;28;20041;-47
2021/01/14 06:33:31;;;;;;;17.33;15.65;;;;;;;;;;5067665;28;20100;-50
2021/01/14 06:36:05;;;;;;;19.33;15.10;;;;;;;;;;5068661;28;20029;-47
2021/01/14 06:38:40;;;;;;;23.67;18.58;;;;;;;;;;5068088;28;20032;-45
2021/01/14 06:41:12;;;;;;;20.33;14.98;;;;;;;;;;5065125;28;20386;-46
2021/01/14 06:43:40;;;;;;;20.10;16.65;;;;;;;;;;5061853;28;20025;-44
2021/01/14 06:46:08;;;;;;;24.30;21.77;;;;;;;;;;5060148;28;20053;-51
2021/01/14 06:48:38;;;;;;;18.25;12.07;;;;;;;;;;5062242;28;20021;-52
2021/01/14 06:51:04;;;;;;;14.45;11.52;;;;;;;;;;5060322;28;20116;-49
2021/01/14 06:53:30;;;;;;;17.13;15.43;;;;;;;;;;5061303;28;20143;-49
2021/01/14 06:55:56;;;;;;;15.45;12.60;;;;;;;;;;5061540;28;20115;-52
2021/01/14 06:58:21;;;;;;;22.60;20.45;;;;;;;;;;5060224;28;20361;-53
2021/01/14 07:00:48;;;;;;;24.30;18.77;;;;;;;;;;5062931;28;20413;-52
2021/01/14 07:03:16;;;;;;;22.35;14.82;;;;;;;;;;5060344;28;20036;-51
2021/01/14 07:05:44;;;;;;;12.18;10.48;;;;;;;;;;5062661;28;20393;-48
2021/01/14 07:08:29;;;;;;;14.20;12.43;;;;;;;;;;5060492;28;20086;-49
2021/01/14 07:11:02;;;;;;;18.83;10.63;;;;;;;;;;5065774;28;20048;-51
2021/01/14 07:13:34;;;;;;;14.32;12.52;;;;;;;;;;5060976;28;20013;-51
2021/01/14 07:16:00;;;;;;;37.50;11.45;;;;;;;;;;5060475;28;20124;-47
2021/01/14 07:18:27;;;;;;;16.90;10.95;;;;;;;;;;5060781;28;20542;-55
2021/01/14 07:20:54;;;;;;;9.95;8.57;;;;;;;;;;5066691;28;20025;-49
2021/01/14 07:23:19;;;;;;;13.65;9.45;;;;;;;;;;5059912;28;20021;-47
2021/01/14 07:25:45;;;;;;;10.98;9.02;;;;;;;;;;5066561;28;20047;-52
2021/01/14 07:28:10;;;;;;;9.95;6.80;;;;;;;;;;5068706;28;20020;-49
2021/01/14 07:30:35;;;;;;;22.60;9.65;;;;;;;;;;5062141;28;20463;-54
2021/01/14 07:33:07;;;;;;;10.35;7.07;;;;;;;;;;5067134;28;20544;-50
2021/01/14 07:35:33;;;;;;;7.60;6.47;;;;;;;;;;5062670;28;20036;-51
2021/01/14 07:37:58;;;;;;;12.00;10.80;;;;;;;;;;5060403;28;20033;-50
2021/01/14 07:40:27;;;;;;;17.63;9.63;;;;;;;;;;5060783;28;20688;-53
2021/01/14 07:42:52;;;;;;;17.48;12.82;;;;;;;;;;5060963;28;20028;-51
2021/01/14 07:45:17;;;;;;;18.38;14.35;;;;;;;;;;5064585;28;20414;-54
2021/01/14 07:47:43;;;;;;;20.42;15.55;;;;;;;;;;5059169;28;20078;-55
2021/01/14 07:50:18;;;;;;;30.98;16.50;;;;;;;;;;5066467;28;20067;-52
2021/01/14 07:52:44;;;;;;;23.33;15.75;;;;;;;;;;5065255;28;20033;-53
2021/01/14 07:55:09;;;;;;;48.90;22.45;;;;;;;;;;5067636;28;20008;-51
2021/01/14 07:57:42;;;;;;;33.35;17.45;;;;;;;;;;5065833;28;20375;-51
2021/01/14 08:00:09;;;;;;;55.83;17.42;;;;;;;;;;5059202;28;20044;-50
2021/01/14 08:02:53;;;;;;;23.48;16.00;;;;;;;;;;5061234;28;20028;-52
2021/01/14 08:05:36;;;;;;;56.45;19.17;;;;;;;;;;5059287;28;20017;-52
2021/01/14 08:08:19;;;;;;;29.67;16.90;;;;;;;;;;5067961;28;20081;-54
2021/01/14 08:10:45;;;;;;;16.30;13.15;;;;;;;;;;5065600;28;20021;-50
2021/01/14 08:13:10;;;;;;;24.50;13.07;;;;;;;;;;5068185;28;20663;-71
2021/01/14 08:15:36;;;;;;;22.73;13.63;;;;;;;;;;5065989;28;20447;-71
2021/01/14 08:29:31;;;;;;;61.20;50.17;;;;;;;;;;5087676;27;20816;-68
2021/01/14 08:31:57;;;;;;;71.13;51.55;;;;;;;;;;5078726;28;20044;-69
2021/01/14 08:34:23;;;;;;;71.57;55.05;;;;;;;;;;5084010;28;20051;-61
2021/01/14 08:36:49;;;;;;;60.92;48.72;;;;;;;;;;5077638;28;20035;-70
2021/01/14 08:39:20;;;;;;;51.75;43.83;;;;;;;;;;5085279;28;20043;-67
2021/01/14 08:41:47;;;;;;;56.17;47.33;;;;;;;;;;5085926;28;20066;-67
2021/01/14 08:44:12;;;;;;;64.18;45.83;;;;;;;;;;5084759;28;20021;-70
2021/01/14 08:46:38;;;;;;;64.40;42.70;;;;;;;;;;5085923;28;20593;-68
2021/01/14 08:49:10;;;;;;;66.07;46.35;;;;;;;;;;5084852;28;20115;-69
2021/01/14 08:51:37;;;;;;;49.10;39.28;;;;;;;;;;5085357;28;20033;-68
2021/01/14 08:54:04;;;;;;;54.63;38.92;;;;;;;;;;5085413;28;20024;-70
2021/01/14 08:56:29;;;;;;;48.65;37.20;;;;;;;;;;5086669;28;20103;-72
2021/01/14 08:58:58;;;;;;;43.33;35.65;;;;;;;;;;5087670;28;20115;-71
2021/01/14 09:01:24;;;;;;;43.15;37.42;;;;;;;;;;5087779;28;20036;-72
2021/01/14 09:03:51;;;;;;;41.78;37.60;;;;;;;;;;5088203;28;20039;-71
2021/01/14 09:06:28;;;;;;;45.08;35.65;;;;;;;;;;5088087;28;20020;-71
2021/01/14 09:08:54;;;;;;;41.67;35.70;;;;;;;;;;5081280;28;20035;-71
2021/01/14 09:11:23;;;;;;;62.83;50.50;;;;;;;;;;5088358;28;20028;-70
2021/01/14 09:13:48;;;;;;;64.95;53.65;;;;;;;;;;5088041;28;20020;-72
2021/01/14 09:16:13;;;;;;;72.53;50.80;;;;;;;;;;5075873;28;20042;-66
2021/01/14 09:18:40;;;;;;;48.53;38.15;;;;;;;;;;5083640;28;20081;-60
2021/01/14 09:21:05;;;;;;;57.25;37.45;;;;;;;;;;5082449;28;20094;-69
2021/01/14 09:23:35;;;;;;;57.88;43.50;;;;;;;;;;5084203;28;20032;-68
2021/01/14 09:26:20;;;;;;;54.50;44.50;;;;;;;;;;5083910;28;20024;-70
2021/01/14 09:28:52;;;;;;;50.03;41.78;;;;;;;;;;5084115;28;20400;-71
2021/01/14 09:31:18;;;;;;;61.35;39.75;;;;;;;;;;5083364;28;20035;-75
2021/01/14 09:33:44;;;;;;;68.30;59.17;;;;;;;;;;5083943;28;20029;-71
2021/01/14 09:36:10;;;;;;;74.68;66.38;;;;;;;;;;5083509;28;20020;-68
2021/01/14 09:38:38;;;;;;;69.13;55.78;;;;;;;;;;5083321;28;20495;-72
2021/01/14 09:41:03;;;;;;;90.43;81.47;;;;;;;;;;5069720;28;20023;-74
2021/01/14 09:43:29;;;;;;;59.33;50.45;;;;;;;;;;5070571;28;20028;-73
2021/01/14 09:45:56;;;;;;;56.28;47.83;;;;;;;;;;5069135;28;20410;-75
2021/01/14 09:48:22;;;;;;;60.03;47.03;;;;;;;;;;5068345;28;20040;-76
2021/01/14 09:50:48;;;;;;;66.85;57.42;;;;;;;;;;5069634;28;20425;-70
2021/01/14 09:53:13;;;;;;;60.92;44.58;;;;;;;;;;5084604;28;20051;-76
2021/01/14 09:55:40;;;;;;;37.15;33.20;;;;;;;;;;5068256;28;20061;-73
2021/01/14 09:58:05;;;;;;;69.43;58.22;;;;;;;;;;5070533;28;20090;-71
2021/01/14 10:00:31;;;;;;;124.75;111.28;;;;;;;;;;5070719;28;20025;-71
2021/01/14 10:03:15;;;;;;;149.60;129.48;;;;;;;;;;5070155;28;20032;-63
2021/01/14 10:05:41;;;;;;;140.63;120.25;;;;;;;;;;5070717;28;20895;-70
2021/01/14 10:08:12;;;;;;;146.60;131.38;;;;;;;;;;5070867;28;20037;-70
2021/01/14 10:10:37;;;;;;;104.15;92.70;;;;;;;;;;5069946;28;20024;-69
2021/01/14 10:13:02;;;;;;;97.95;84.00;;;;;;;;;;5070997;28;20033;-73
2021/01/14 10:15:28;;;;;;;97.35;87.28;;;;;;;;;;5069252;28;20059;-69
2021/01/14 10:17:53;;;;;;;107.43;91.05;;;;;;;;;;5070012;28;20127;-71
2021/01/14 10:20:18;;;;;;;86.45;77.22;;;;;;;;;;5070175;28;20020;-70
2021/01/14 10:22:50;;;;;;;58.35;52.38;;;;;;;;;;5072100;28;20441;-55
2021/01/14 10:25:16;;;;;;;54.88;46.63;;;;;;;;;;5073540;28;20055;-48
2021/01/14 10:27:41;;;;;;;30.83;26.85;;;;;;;;;;5071146;28;20142;-44
2021/01/14 10:30:16;;;;;;;29.50;26.38;;;;;;;;;;5072871;28;20476;-45
2021/01/14 10:32:42;;;;;;;46.10;32.05;;;;;;;;;;5072848;28;20036;-50
2021/01/14 10:35:07;;;;;;;20.27;17.25;;;;;;;;;;5072084;28;20025;-49
2021/01/14 10:37:35;;;;;;;31.55;21.40;;;;;;;;;;5072117;28;20036;-54
2021/01/14 10:40:02;;;;;;;39.83;34.30;;;;;;;;;;5072910;28;20117;-50
2021/01/14 10:42:32;;;;;;;54.03;42.38;;;;;;;;;;5072822;28;20021;-47
2021/01/14 10:44:59;;;;;;;58.53;50.38;;;;;;;;;;5072599;28;20025;-45
2021/01/14 10:47:24;;;;;;;57.05;34.42;;;;;;;;;;5072452;28;20032;-45
2021/01/14 10:49:50;;;;;;;51.65;40.72;;;;;;;;;;5072235;28;20192;-46
2021/01/14 10:52:15;;;;;;;37.90;23.42;;;;;;;;;;5071622;28;20520;-45
2021/01/14 10:54:41;;;;;;;29.17;22.40;;;;;;;;;;5072375;28;20028;-47
2021/01/14 10:57:06;;;;;;;30.65;19.30;;;;;;;;;;5072455;28;20112;-51
2021/01/14 10:59:33;;;;;;;23.77;18.25;;;;;;;;;;5072100;28;20384;-46
2021/01/14 11:02:06;;;;;;;24.33;21.58;;;;;;;;;;5072193;28;20452;-48
2021/01/14 11:04:31;;;;;;;21.70;14.95;;;;;;;;;;5071959;28;20029;-49
2021/01/14 11:06:57;;;;;;;32.17;13.27;;;;;;;;;;5072099;28;20370;-48
2021/01/14 11:09:22;;;;;;;22.13;18.42;;;;;;;;;;5071464;28;20043;-49
2021/01/14 11:11:47;;;;;;;15.82;12.32;;;;;;;;;;5071635;28;20028;-49
2021/01/14 11:14:16;;;;;;;11.27;7.85;;;;;;;;;;5072068;28;20115;-48
2021/01/14 11:16:41;;;;;;;9.68;6.45;;;;;;;;;;5071824;28;20090;-48
2021/01/14 11:19:08;;;;;;;7.18;5.60;;;;;;;;;;5071056;28;20024;-44
2021/01/14 11:21:34;;;;;;;20.30;8.35;;;;;;;;;;5071980;28;20403;-53
2021/01/14 11:24:00;;;;;;;12.80;7.95;;;;;;;;;;5071317;28;20055;-54
2021/01/14 11:26:25;;;;;;;14.82;7.45;;;;;;;;;;5071578;28;20453;-48
2021/01/14 11:28:52;;;;;;;11.57;9.70;;;;;;;;;;5069661;28;20105;-50
2021/01/14 11:31:18;;;;;;;16.70;7.45;;;;;;;;;;5071636;28;20031;-47
2021/01/14 11:33:44;;;;;;;17.58;10.98;;;;;;;;;;5071637;28;20099;-52
2021/01/14 11:36:10;;;;;;;18.90;6.45;;;;;;;;;;5070409;28;20033;-43
2021/01/14 11:38:35;;;;;;;11.32;7.18;;;;;;;;;;5071772;28;20098;-49
2021/01/14 11:41:01;;;;;;;14.27;4.95;;;;;;;;;;5071705;28;20047;-45
2021/01/14 11:43:26;;;;;;;10.75;6.40;;;;;;;;;;5063877;28;20375;-57
2021/01/14 11:45:51;;;;;;;12.98;5.63;;;;;;;;;;5071652;28;20369;-47
2021/01/14 11:48:17;;;;;;;25.75;8.18;;;;;;;;;;5071240;28;20469;-50
2021/01/14 11:50:42;;;;;;;7.75;4.78;;;;;;;;;;5071472;28;20484;-51
2021/01/14 11:53:07;;;;;;;27.55;6.55;;;;;;;;;;5071236;28;20469;-46
2021/01/14 11:55:33;;;;;;;8.85;4.55;;;;;;;;;;5071267;28;20020;-47
2021/01/14 11:57:58;;;;;;;9.63;5.43;;;;;;;;;;5071425;28;20033;-50
2021/01/14 12:00:23;;;;;;;4.50;2.83;;;;;;;;;;5071299;28;20028;-52
2021/01/14 12:02:49;;;;;;;8.15;3.83;;;;;;;;;;5071200;28;20401;-48
2021/01/14 12:05:14;;;;;;;7.57;2.47;;;;;;;;;;5070413;28;20368;-48
2021/01/14 12:07:40;;;;;;;6.50;2.63;;;;;;;;;;5070665;28;20032;-48
2021/01/14 12:10:06;;;;;;;3.58;2.58;;;;;;;;;;5071298;28;20368;-49
2021/01/14 12:12:32;;;;;;;10.68;7.55;;;;;;;;;;5070909;28;20036;-48
2021/01/14 12:14:57;;;;;;;10.85;4.13;;;;;;;;;;5071127;28;20377;-52
2021/01/14 12:17:23;;;;;;;5.82;3.42;;;;;;;;;;5070538;28;20112;-51
2021/01/14 12:19:48;;;;;;;5.22;2.95;;;;;;;;;;5069957;28;20025;-50
2021/01/14 12:22:13;;;;;;;6.20;2.55;;;;;;;;;;5070742;28;20085;-51
2021/01/14 12:24:38;;;;;;;4.50;3.60;;;;;;;;;;5070679;28;20063;-53
2021/01/14 12:27:04;;;;;;;7.45;5.95;;;;;;;;;;5070528;28;20020;-53
2021/01/14 12:29:29;;;;;;;7.38;5.38;;;;;;;;;;5070918;28;20035;-48
2021/01/14 12:31:54;;;;;;;2.53;2.20;;;;;;;;;;5071108;28;20021;-50
2021/01/14 12:34:20;;;;;;;8.90;6.03;;;;;;;;;;5070454;28;20114;-47
2021/01/14 12:36:45;;;;;;;6.40;3.97;;;;;;;;;;5070993;28;20028;-49
2021/01/14 12:39:11;;;;;;;8.30;3.30;;;;;;;;;;5069645;28;20036;-48
2021/01/14 12:41:37;;;;;;;6.57;2.17;;;;;;;;;;5070051;28;20074;-50
2021/01/14 12:44:03;;;;;;;4.80;2.42;;;;;;;;;;5070293;28;20036;-52
2021/01/14 12:46:32;;;;;;;9.82;3.17;;;;;;;;;;5070740;28;20099;-50
2021/01/14 12:48:57;;;;;;;7.20;3.55;;;;;;;;;;5070796;28;20196;-55
2021/01/14 12:51:22;;;;;;;6.20;3.20;;;;;;;;;;5068080;28;20107;-53
2021/01/14 12:53:48;;;;;;;4.25;2.75;;;;;;;;;;5068119;28;20078;-49
2021/01/14 12:56:14;;;;;;;4.13;2.17;;;;;;;;;;5068470;28;20017;-45
2021/01/14 12:58:39;;;;;;;3.95;2.53;;;;;;;;;;5068461;28;20032;-45
2021/01/14 13:01:04;;;;;;;5.35;2.03;;;;;;;;;;5084088;28;20035;-55
2021/01/14 13:03:30;;;;;;;4.60;4.00;;;;;;;;;;5068703;28;20075;-49
2021/01/14 13:05:55;;;;;;;3.65;2.88;;;;;;;;;;5068653;28;20021;-51
2021/01/14 13:08:20;;;;;;;8.25;3.70;;;;;;;;;;5068386;28;20045;-46
2021/01/14 13:10:45;;;;;;;4.25;3.30;;;;;;;;;;5068074;28;20495;-49
2021/01/14 13:13:11;;;;;;;9.52;3.90;;;;;;;;;;5068144;28;20024;-48
2021/01/14 13:15:36;;;;;;;10.25;7.93;;;;;;;;;;5072207;28;20461;-55
2021/01/14 13:18:01;;;;;;;4.53;3.85;;;;;;;;;;5073404;28;20063;-53
2021/01/14 13:20:28;;;;;;;3.67;2.47;;;;;;;;;;5071311;28;20074;-52
2021/01/14 13:22:54;;;;;;;6.97;4.35;;;;;;;;;;5071663;28;20029;-48
2021/01/14 13:25:20;;;;;;;5.47;3.92;;;;;;;;;;5071450;28;20023;-54
2021/01/14 13:27:45;;;;;;;7.05;5.28;;;;;;;;;;5071621;28;20088;-50
2021/01/14 13:30:11;;;;;;;3.78;1.77;;;;;;;;;;5071754;28;22122;-49
2021/01/14 13:32:36;;;;;;;4.85;2.63;;;;;;;;;;5071795;28;20033;-67
2021/01/14 13:35:01;;;;;;;3.22;2.55;;;;;;;;;;5071995;28;20024;-57
2021/01/14 13:37:27;;;;;;;8.50;4.57;;;;;;;;;;5072478;28;20103;-54
2021/01/14 13:39:52;;;;;;;4.90;2.03;;;;;;;;;;5061277;28;20028;-56
2021/01/14 13:42:21;;;;;;;5.95;2.17;;;;;;;;;;5068048;28;20035;-50
2021/01/14 13:44:46;;;;;;;11.00;4.72;;;;;;;;;;5067740;28;20016;-57
2021/01/14 13:47:12;;;;;;;8.20;3.45;;;;;;;;;;5069545;28;20047;-52
2021/01/14 13:49:37;;;;;;;10.27;2.22;;;;;;;;;;5069149;28;20043;-59
2021/01/14 13:52:02;;;;;;;5.22;2.35;;;;;;;;;;5083960;28;20508;-57
2021/01/14 13:54:28;;;;;;;10.32;1.40;;;;;;;;;;5068824;28;20028;-53
2021/01/14 13:56:56;;;;;;;16.83;2.97;;;;;;;;;;5068789;28;20438;-53
2021/01/14 13:59:21;;;;;;;8.35;4.57;;;;;;;;;;5068957;28;20395;-52
2021/01/14 14:01:47;;;;;;;3.78;3.17;;;;;;;;;;5068244;28;20460;-51
2021/01/14 14:04:12;;;;;;;4.20;1.88;;;;;;;;;;5068660;28;20036;-57
2021/01/14 14:06:39;;;;;;;14.60;2.75;;;;;;;;;;5068097;28;20438;-51
2021/01/14 14:09:06;;;;;;;7.05;3.03;;;;;;;;;;5068266;28;20044;-49
2021/01/14 14:11:31;;;;;;;7.10;2.38;;;;;;;;;;5082086;28;20419;-51
2021/01/14 14:13:57;;;;;;;4.50;3.40;;;;;;;;;;5068715;28;20039;-56
2021/01/14 14:16:22;;;;;;;9.18;2.45;;;;;;;;;;5068311;28;20024;-50
2021/01/14 14:18:48;;;;;;;4.55;2.75;;;;;;;;;;5068525;28;20105;-50
2021/01/14 14:21:14;;;;;;;5.25;2.85;;;;;;;;;;5068593;28;20025;-54
2021/01/14 14:23:39;;;;;;;1.90;1.38;;;;;;;;;;5068437;28;20024;-47
2021/01/14 14:26:05;;;;;;;9.48;2.35;;;;;;;;;;5084049;28;20044;-50
2021/01/14 14:28:30;;;;;;;9.45;4.82;;;;;;;;;;5067652;28;20098;-52
2021/01/14 14:30:55;;;;;;;4.43;2.03;;;;;;;;;;5084153;28;20428;-53
2021/01/14 14:33:21;;;;;;;4.00;2.45;;;;;;;;;;5083758;28;20040;-59
2021/01/14 14:35:46;;;;;;;9.45;2.38;;;;;;;;;;5068893;28;20020;-56